Malcolm Mc Kinnon Airport
KSSI : rendu visible

Aérodrome :











RETROUVEZ-NOUS SUR...

 
LOGIN :

S'inscrire | Disclaimer

   EN    FR    IT 

 









Légende :    VFR   VFR Marginal   IFR   IFR Intensif   IFR Très Intensif
Visi : 
Plafond : 
>= 8 km
>= 3000ft
5 à 8 km
1000 à 3000 ft
1500m à 5 km
500 à 1000 ft
800 à 1500m
200 à 500 ft
< 800m
< 200 ft
Symboles :   Orages  Brouillard  Fortes neiges  Fortes précipitations  Vent > 20 kt






- Altitude de l'aérodrome : 19 ft


KSSI - Malcolm Mc Kinnon

DERNIER METAR :
  • 121753Z AUTO 03016G24KT 10SM BKN017 OVC027 15/11 A3037 RMK AO2 PK WND 03029/1724 SLP284 60002 T01500106 10161 20139 58021

METARs EXPIRÉS :
  • 121653Z AUTO 04015G25KT 10SM FEW017 BKN029 OVC070 16/11 A3040 RMK AO2 PK WND 04027/1618 SLP295 T01610111
  • 121553Z AUTO 05014G26KT 9SM FEW050 BKN075 OVC100 14/11 A3043 RMK AO2 PK WND 04026/1553 RAE1458B20E52 SLP305 P0002 T01440106

TAF KSSI
Valide du 12 à 18h jusqu'au 13 à 18h UTC


121829Z 1218/1318 05016G25KT P6SM BKN015 OVC025
FM122000 04017G26KT P6SM VCSH OVC015
FM122200 04015G25KT P6SM VCSH OVC009
FM130500 04011KT 4SM SHRA BR OVC005



MET'MAP, la Météo Aéronautique d'un coup d'oeil ! - Copyright ORBIFLY Décembre 2007 - Disclaimer

ORBIFLY MET'MAP TEAM :

Programmation & Développement : Alexandra Zaïnal
Sur une idée originale de : Baudouin d'Aumeries
Assistance à la programmation : Marc-Olivier Méhu
Soutien technique & logistique : Manuel Goepfert

Contact : metmap@orbifly.com




SOURCES & CREDITS :

   NOAA       Earth
Advisory